首页
METAR-TAF:

METAR-TAF

机场 :

纽卡斯尔机场

泰恩河畔纽卡斯尔, 英格兰

纬度: 55-02N, 经度: 001-42W, 海拔: 81米

当前天气观测

该预报发布于34分钟前的15:50 UTC
风速13节,风向西转西南
温度 11°C
湿度 58%
气压 990 hPa
能见度10公里或以上
散云层高于3500英尺, 积雨云.
小阵雨

METAR: EGNT 051550Z 25013KT 9999 -SHRA SCT035CB 11/03 Q0990

时间: 17:24 (16:24 UTC)

预报

该预报发布于48分钟前的15:36 UTC
预报有效从05日的 15点(UTC)到 06日的 12点(UTC)
风速12节,风向西北
能见度10公里或以上
散云层高于3500英尺
成为
从 05日的 15点(UTC)到 05日的 18点(UTC)
风速18节,风向西转西北,有时为28节阵风
短暂存在
从 05日的 15点(UTC)到 05日的 21点(UTC)
能見度: 6000
阵雨
几率 30% :
短暂存在
从 05日的 15点(UTC)到 05日的 18点(UTC)
能見度: 4000
多云层高于1400英尺, 积雨云.
大阵雨
短暂存在
从 05日的 21点(UTC)到 06日的 06点(UTC)
风速22节,风向西,有时为38节阵风
能見度: 6000
几率 30% :
短暂存在
从 05日的 21点(UTC)到 06日的 06点(UTC)
多云层高于1400英尺
短暂存在
从 06日的 06点(UTC)到 06日的 12点(UTC)
能見度: 7000
阵雨
几率 30% :
短暂存在
从 06日的 09点(UTC)到 06日的 12点(UTC)
能見度: 4000
多云层高于1400英尺, 积雨云.
大阵雨

TAF: EGNT 051536Z 0515/0612 31012KT 9999 SCT035 BECMG 0515/0518 29018G28KT TEMPO 0515/0521 6000 SHRA PROB30 TEMPO 0515/0518 4000 +SHRA BKN014CB TEMPO 0521/0606 26022G38KT 6000 RA PROB30 TEMPO 0521/0606 BKN014 TEMPO 0606/0612 7000 SHRA PROB30 TEMPO 0609/0612 4000 +SHRA BKN014CB

超过4000个机场的气象观测和天气预报(METAR&TAF报告)。

可查询的气象台以黄色和红色小点在地图上表示。

将鼠标移到小点上方,可查看气象台名称。

然后点击查看天气观测和预报。

如需切换地图:点击带黑十字的绿色按钮放大地图;点击带横线的绿色按钮缩小地图;或者点击绿色箭头查看邻近地区的地图。


METAR-TAF: